Time;durP1;ratioP1;P1;durP2;ratioP2;P2;SDS_P1;SDS_P2;PMS_P1;PMS_P2;Temp;Humidity;BMP_temperature;BMP_pressure;BME280_temperature;BME280_humidity;BME280_pressure;Samples;Min_cycle;Max_cycle;Signal;HPM_P1;HPM_P2
2023/05/21 00:01:51;;;;;;;10.80;8.90;;;16.50;99.90;;;;;;5050372;28;20564;-74
2023/05/21 00:04:17;;;;;;;9.30;8.33;;;16.50;99.90;;;;;;5051034;28;20598;-74
2023/05/21 00:06:43;;;;;;;9.17;8.00;;;16.40;99.90;;;;;;5049519;28;20582;-74
2023/05/21 00:09:09;;;;;;;8.23;7.43;;;16.40;99.90;;;;;;5051179;28;20185;-74
2023/05/21 00:11:35;;;;;;;9.40;8.27;;;16.40;99.90;;;;;;5065422;28;20173;-74
2023/05/21 00:14:00;;;;;;;10.43;8.10;;;16.40;99.90;;;;;;5066206;28;20650;-74
2023/05/21 00:16:26;;;;;;;9.80;7.63;;;16.40;99.90;;;;;;5050375;28;20224;-74
2023/05/21 00:18:53;;;;;;;9.73;8.47;;;16.40;99.90;;;;;;5051000;28;20268;-74
2023/05/21 00:21:21;;;;;;;8.07;7.00;;;16.30;99.90;;;;;;5049254;28;20177;-74
2023/05/21 00:23:53;;;;;;;9.63;8.10;;;16.30;99.90;;;;;;5039715;28;20612;-74
2023/05/21 00:26:20;;;;;;;9.97;7.33;;;16.30;99.90;;;;;;5030911;28;20964;-75
2023/05/21 00:28:47;;;;;;;9.73;8.73;;;16.30;99.90;;;;;;5015747;28;20595;-74
2023/05/21 00:31:12;;;;;;;10.10;8.20;;;16.30;99.90;;;;;;5012978;28;20560;-74
2023/05/21 00:33:38;;;;;;;10.70;8.60;;;16.30;99.90;;;;;;5030402;28;20213;-74
2023/05/21 00:36:04;;;;;;;14.40;9.83;;;16.30;99.90;;;;;;5013571;28;20629;-74
2023/05/21 00:38:31;;;;;;;8.50;7.70;;;16.30;99.90;;;;;;5013732;28;20177;-74
2023/05/21 00:41:03;;;;;;;11.07;8.10;;;16.30;99.90;;;;;;5029488;28;20569;-74
2023/05/21 00:43:31;;;;;;;9.20;8.20;;;16.30;99.90;;;;;;5029208;28;20620;-74
2023/05/21 00:45:58;;;;;;;10.90;9.20;;;16.30;99.90;;;;;;5031969;28;20587;-75
2023/05/21 00:48:24;;;;;;;9.13;8.20;;;16.30;99.90;;;;;;5034135;28;20596;-75
2023/05/21 00:50:51;;;;;;;9.27;8.37;;;16.30;99.90;;;;;;5032898;28;20646;-74
2023/05/21 00:53:18;;;;;;;8.73;7.63;;;16.40;99.90;;;;;;5034470;28;20658;-74
2023/05/21 00:55:45;;;;;;;12.87;8.53;;;16.30;99.90;;;;;;5045849;28;20990;-74
2023/05/21 00:58:11;;;;;;;11.03;8.07;;;16.30;99.90;;;;;;5053239;28;21002;-74
2023/05/21 01:00:39;;;;;;;10.03;8.20;;;16.40;99.90;;;;;;5052948;28;20575;-74
2023/05/21 01:03:05;;;;;;;10.27;9.17;;;16.40;99.90;;;;;;5049962;28;20607;-75
2023/05/21 01:05:31;;;;;;;9.47;8.00;;;16.40;99.90;;;;;;5034264;28;20612;-74
2023/05/21 01:07:58;;;;;;;8.20;6.90;;;16.40;99.90;;;;;;5033298;28;20571;-74
2023/05/21 01:10:25;;;;;;;8.30;7.50;;;16.30;99.90;;;;;;5032450;28;20927;-74
2023/05/21 01:12:51;;;;;;;9.40;8.27;;;16.30;99.90;;;;;;5031805;28;21173;-74
2023/05/21 01:15:17;;;;;;;8.60;7.20;;;16.30;99.90;;;;;;5036174;28;20631;-74
2023/05/21 01:17:47;;;;;;;9.50;7.10;;;16.30;99.90;;;;;;5019728;28;20627;-75
2023/05/21 01:20:17;;;;;;;10.00;7.67;;;16.30;99.90;;;;;;5013434;28;20600;-74
2023/05/21 01:22:54;;;;;;;12.13;7.67;;;16.30;99.90;;;;;;5029519;28;20603;-74
2023/05/21 01:25:21;;;;;;;9.27;8.48;;;16.30;99.90;;;;;;5030897;28;21147;-74
2023/05/21 01:27:47;;;;;;;9.18;7.88;;;16.30;99.90;;;;;;5014179;28;20201;-74
2023/05/21 01:30:15;;;;;;;9.40;7.53;;;16.30;99.90;;;;;;5031437;28;20178;-74
2023/05/21 01:32:48;;;;;;;9.80;7.17;;;16.30;99.90;;;;;;5050907;28;21058;-74
2023/05/21 01:35:21;;;;;;;8.50;7.57;;;16.30;99.90;;;;;;5014081;28;20649;-74
2023/05/21 01:38:12;;;;;;;8.97;7.23;;;16.20;99.90;;;;;;5029990;28;20593;-74
2023/05/21 01:40:46;;;;;;;9.80;7.68;;;16.20;99.90;;;;;;5030565;28;20588;-75
2023/05/21 01:43:14;;;;;;;8.80;6.97;;;16.20;99.90;;;;;;5030640;28;20728;-74
2023/05/21 01:45:42;;;;;;;7.80;7.00;;;16.20;99.90;;;;;;5029649;28;21004;-74
2023/05/21 01:48:10;;;;;;;7.80;7.00;;;16.20;99.90;;;;;;5030815;28;20705;-74
2023/05/21 01:50:37;;;;;;;9.17;7.27;;;16.20;99.90;;;;;;5032713;28;20646;-74
2023/05/21 01:53:04;;;;;;;8.03;7.23;;;16.20;99.90;;;;;;5044463;28;20649;-74
2023/05/21 01:55:31;;;;;;;10.93;7.30;;;16.20;99.90;;;;;;5030328;28;20677;-75
2023/05/21 01:57:58;;;;;;;9.40;8.40;;;16.10;99.90;;;;;;5029795;28;20604;-75
2023/05/21 02:00:31;;;;;;;8.53;7.20;;;16.20;99.90;;;;;;5029021;28;20636;-74
2023/05/21 02:02:57;;;;;;;8.90;7.10;;;16.10;99.90;;;;;;5029983;28;20685;-75
2023/05/21 02:05:23;;;;;;;7.83;6.70;;;16.10;99.90;;;;;;5013248;28;20597;-75
2023/05/21 02:07:50;;;;;;;8.20;7.00;;;16.10;99.90;;;;;;5013732;28;20799;-75
2023/05/21 02:10:17;;;;;;;8.60;7.30;;;16.10;99.90;;;;;;5031341;28;21127;-75
2023/05/21 02:12:43;;;;;;;8.60;6.20;;;16.10;99.90;;;;;;5012290;28;21254;-75
2023/05/21 02:15:08;;;;;;;7.83;6.20;;;16.10;99.90;;;;;;5028457;28;20643;-75
2023/05/21 02:17:34;;;;;;;9.40;7.00;;;16.10;99.90;;;;;;5030675;28;20439;-74
2023/05/21 02:20:10;;;;;;;7.60;6.00;;;16.10;99.90;;;;;;5030097;28;20608;-75
2023/05/21 02:22:40;;;;;;;6.53;5.53;;;16.10;99.90;;;;;;5024522;28;20604;-75
2023/05/21 02:25:07;;;;;;;8.73;7.00;;;16.10;99.90;;;;;;5045300;28;20648;-74
2023/05/21 02:27:35;;;;;;;6.73;5.87;;;16.10;99.90;;;;;;5006492;28;20619;-75
2023/05/21 02:30:12;;;;;;;7.00;6.30;;;16.10;99.90;;;;;;5026526;28;20605;-75
2023/05/21 02:32:41;;;;;;;10.13;6.50;;;16.10;99.90;;;;;;5037864;28;20636;-75
2023/05/21 02:35:08;;;;;;;6.40;5.80;;;16.10;99.90;;;;;;5029333;28;20639;-75
2023/05/21 02:37:34;;;;;;;10.13;6.05;;;16.10;99.90;;;;;;5030427;28;20612;-75
2023/05/21 02:40:06;;;;;;;6.67;5.60;;;16.10;99.90;;;;;;5012467;28;20166;-75
2023/05/21 02:42:32;;;;;;;7.20;6.33;;;16.10;99.90;;;;;;5022867;28;20632;-75
2023/05/21 02:44:58;;;;;;;7.43;6.60;;;16.00;99.90;;;;;;5029583;28;20608;-74
2023/05/21 02:47:25;;;;;;;7.20;5.90;;;16.10;99.90;;;;;;5012807;28;20597;-74
2023/05/21 02:49:51;;;;;;;7.93;6.43;;;16.10;99.90;;;;;;5028416;28;20653;-74
2023/05/21 02:52:18;;;;;;;6.43;5.47;;;16.10;99.90;;;;;;5028514;28;20600;-73
2023/05/21 02:54:46;;;;;;;5.20;4.70;;;16.10;99.90;;;;;;5025267;28;20688;-74
2023/05/21 02:57:12;;;;;;;6.90;6.10;;;16.10;99.90;;;;;;5010521;28;20707;-74
2023/05/21 02:59:38;;;;;;;7.83;6.57;;;16.00;99.90;;;;;;5028748;28;20593;-74
2023/05/21 03:02:04;;;;;;;6.30;5.70;;;16.00;99.90;;;;;;5028534;28;20681;-74
2023/05/21 03:04:31;;;;;;;6.70;5.43;;;16.00;99.90;;;;;;5012726;28;20635;-74
2023/05/21 03:07:00;;;;;;;6.30;5.33;;;16.00;99.90;;;;;;5013286;28;20608;-74
2023/05/21 03:09:27;;;;;;;6.73;5.60;;;16.00;99.90;;;;;;5028468;28;20640;-74
2023/05/21 03:11:55;;;;;;;6.90;5.40;;;16.00;99.90;;;;;;5026864;28;20956;-74
2023/05/21 03:14:23;;;;;;;7.23;6.50;;;16.00;99.90;;;;;;5029495;28;20644;-73
2023/05/21 03:16:50;;;;;;;6.45;5.15;;;16.00;99.90;;;;;;5043012;28;20193;-74
2023/05/21 03:19:16;;;;;;;6.57;5.63;;;16.00;99.90;;;;;;5027959;28;20536;-73
2023/05/21 03:21:43;;;;;;;7.57;6.07;;;16.00;99.90;;;;;;5011889;28;20669;-74
2023/05/21 03:24:09;;;;;;;6.27;5.60;;;16.00;99.90;;;;;;5035851;28;20620;-73
2023/05/21 03:26:34;;;;;;;6.53;5.90;;;16.00;99.90;;;;;;5030204;28;20185;-73
2023/05/21 03:29:01;;;;;;;6.17;5.57;;;16.00;99.90;;;;;;5029253;28;20185;-74
2023/05/21 03:31:26;;;;;;;6.80;5.67;;;16.00;99.90;;;;;;5028847;28;20205;-74
2023/05/21 03:34:07;;;;;;;6.90;6.20;;;16.00;99.90;;;;;;5029768;28;20652;-74
2023/05/21 03:36:33;;;;;;;6.83;6.17;;;16.00;99.90;;;;;;5025097;28;20599;-74
2023/05/21 03:39:00;;;;;;;6.87;5.17;;;16.00;99.90;;;;;;5024087;28;20592;-73
2023/05/21 03:41:26;;;;;;;6.50;5.83;;;16.00;99.90;;;;;;5011573;28;20608;-73
2023/05/21 03:44:07;;;;;;;6.00;5.40;;;16.00;99.90;;;;;;5011229;28;20689;-73
2023/05/21 03:46:45;;;;;;;5.40;4.60;;;16.00;99.90;;;;;;5009968;28;20646;-73
2023/05/21 03:49:31;;;;;;;7.93;6.10;;;16.00;99.90;;;;;;5028100;28;21301;-73
2023/05/21 03:51:57;;;;;;;8.07;6.40;;;16.00;99.90;;;;;;5009100;28;20600;-73
2023/05/21 03:54:24;;;;;;;7.27;5.60;;;16.00;99.90;;;;;;5028440;28;21198;-73
2023/05/21 03:56:53;;;;;;;7.83;5.07;;;16.00;99.90;;;;;;5028455;28;20592;-74
2023/05/21 03:59:19;;;;;;;7.47;5.40;;;16.00;99.90;;;;;;5043827;28;20683;-73
2023/05/21 04:01:47;;;;;;;8.95;6.50;;;16.00;99.90;;;;;;5011588;28;20673;-74
2023/05/21 04:04:15;;;;;;;7.10;6.40;;;16.00;99.90;;;;;;5027763;28;20201;-74
2023/05/21 04:06:43;;;;;;;5.80;5.20;;;16.00;99.90;;;;;;5028442;28;20681;-74
2023/05/21 04:09:09;;;;;;;8.40;5.30;;;16.00;99.90;;;;;;5027591;28;20600;-73
2023/05/21 04:11:35;;;;;;;7.67;6.20;;;16.00;99.90;;;;;;5028824;28;20646;-74
2023/05/21 04:14:02;;;;;;;7.00;6.17;;;16.00;99.90;;;;;;5027861;28;20197;-74
2023/05/21 04:16:28;;;;;;;7.50;6.10;;;16.10;99.90;;;;;;5010309;28;21202;-74
2023/05/21 04:18:56;;;;;;;5.23;4.73;;;16.10;99.90;;;;;;5023186;28;20178;-74
2023/05/21 04:21:25;;;;;;;6.37;5.13;;;16.10;99.90;;;;;;5012792;28;20177;-74
2023/05/21 04:23:52;;;;;;;6.07;4.90;;;16.10;99.90;;;;;;5046444;28;21207;-74
2023/05/21 04:26:32;;;;;;;7.20;6.47;;;16.10;99.90;;;;;;5031588;28;20212;-75
2023/05/21 04:28:58;;;;;;;6.45;5.85;;;16.10;99.90;;;;;;5031401;28;20596;-74
2023/05/21 04:31:24;;;;;;;8.43;5.50;;;16.10;99.90;;;;;;5029001;28;20177;-74
2023/05/21 04:33:50;;;;;;;6.80;5.73;;;16.10;99.90;;;;;;5015301;28;20976;-74
2023/05/21 04:36:16;;;;;;;8.07;5.50;;;16.20;99.90;;;;;;5015019;28;20177;-74
2023/05/21 04:38:43;;;;;;;7.13;6.30;;;16.20;99.90;;;;;;5015290;28;20935;-74
2023/05/21 04:41:10;;;;;;;6.73;6.00;;;16.20;99.90;;;;;;5031754;28;20654;-74
2023/05/21 04:43:37;;;;;;;7.00;6.30;;;16.20;99.90;;;;;;5031594;28;20630;-74
2023/05/21 04:46:03;;;;;;;6.53;6.03;;;16.30;99.90;;;;;;5032389;28;20949;-74
2023/05/21 04:48:29;;;;;;;7.33;5.67;;;16.20;99.90;;;;;;5031582;28;20596;-74
2023/05/21 04:50:55;;;;;;;7.00;6.30;;;16.30;99.90;;;;;;5033528;28;20592;-74
2023/05/21 04:53:22;;;;;;;7.80;6.00;;;16.30;99.90;;;;;;5026468;28;20691;-74
2023/05/21 04:55:48;;;;;;;7.07;6.03;;;16.40;99.90;;;;;;5028534;28;20698;-74
2023/05/21 04:58:17;;;;;;;6.50;5.47;;;16.40;99.90;;;;;;5028888;28;20596;-74
2023/05/21 05:00:49;;;;;;;7.40;5.97;;;16.40;99.90;;;;;;5012824;28;20603;-74
2023/05/21 05:03:15;;;;;;;6.87;6.20;;;16.50;99.90;;;;;;5030353;28;20636;-74
2023/05/21 05:05:42;;;;;;;6.63;6.03;;;16.50;99.90;;;;;;5031009;28;20669;-75
2023/05/21 05:08:08;;;;;;;7.90;6.10;;;16.60;99.90;;;;;;5014724;28;20616;-74
2023/05/21 05:10:34;;;;;;;8.73;6.33;;;16.60;99.90;;;;;;5046816;28;20188;-74
2023/05/21 05:13:00;;;;;;;7.00;5.67;;;16.60;99.90;;;;;;5030513;28;20213;-74
2023/05/21 05:15:28;;;;;;;9.17;6.23;;;16.60;99.90;;;;;;5010470;28;21251;-74
2023/05/21 05:17:55;;;;;;;8.93;5.70;;;16.70;99.90;;;;;;5030688;28;20604;-74
2023/05/21 05:20:21;;;;;;;6.43;5.83;;;16.70;99.90;;;;;;5032163;28;21098;-74
2023/05/21 05:22:48;;;;;;;5.37;4.87;;;16.80;99.90;;;;;;5030246;28;20600;-73
2023/05/21 05:25:14;;;;;;;6.70;5.80;;;16.80;99.90;;;;;;5031172;28;20687;-74
2023/05/21 05:27:41;;;;;;;6.87;5.77;;;16.90;99.90;;;;;;4998842;28;20603;-75
2023/05/21 05:30:07;;;;;;;7.00;6.10;;;16.90;99.90;;;;;;5030763;28;20596;-74
2023/05/21 05:32:34;;;;;;;8.23;5.37;;;16.90;99.90;;;;;;5030584;28;20198;-74
2023/05/21 05:35:01;;;;;;;6.43;5.70;;;17.00;99.90;;;;;;5031231;28;20604;-75
2023/05/21 05:37:27;;;;;;;7.80;6.30;;;17.00;99.90;;;;;;5023096;28;20608;-75
2023/05/21 05:39:53;;;;;;;6.00;5.40;;;17.10;99.90;;;;;;5014401;28;20588;-75
2023/05/21 05:42:18;;;;;;;6.13;5.27;;;17.10;99.90;;;;;;5031171;28;20220;-75
2023/05/21 05:44:44;;;;;;;6.53;5.50;;;17.20;99.90;;;;;;5029261;28;20753;-75
2023/05/21 05:47:10;;;;;;;8.00;5.77;;;17.20;99.90;;;;;;5047110;28;20683;-74
2023/05/21 05:49:37;;;;;;;6.87;6.17;;;17.20;99.90;;;;;;5013901;28;20751;-74
2023/05/21 05:52:04;;;;;;;6.30;5.70;;;17.30;99.90;;;;;;5006862;28;20596;-74
2023/05/21 05:54:29;;;;;;;7.00;6.27;;;17.30;99.90;;;;;;5031834;28;20597;-74
2023/05/21 05:56:56;;;;;;;7.97;5.87;;;17.50;99.90;;;;;;5029500;28;20604;-74
2023/05/21 05:59:22;;;;;;;6.80;6.00;;;17.50;99.90;;;;;;5031185;28;20607;-74
2023/05/21 06:01:49;;;;;;;5.73;4.60;;;17.60;99.90;;;;;;5028846;28;20695;-74
2023/05/21 06:04:15;;;;;;;6.43;4.90;;;17.60;99.90;;;;;;5011805;28;20990;-74
2023/05/21 06:06:41;;;;;;;7.90;6.50;;;17.70;99.90;;;;;;5029408;28;20606;-74
2023/05/21 06:09:08;;;;;;;7.47;5.53;;;17.80;99.90;;;;;;5027116;28;20672;-74
2023/05/21 06:11:34;;;;;;;7.37;5.70;;;17.90;99.90;;;;;;5029081;28;20929;-74
2023/05/21 06:14:00;;;;;;;6.40;5.70;;;18.00;99.90;;;;;;5025609;28;20205;-74
2023/05/21 06:16:30;;;;;;;5.90;4.93;;;18.10;99.90;;;;;;5041117;28;20273;-74
2023/05/21 06:18:56;;;;;;;6.00;5.10;;;18.20;99.90;;;;;;5044018;28;21152;-74
2023/05/21 06:21:23;;;;;;;6.80;5.10;;;18.40;99.90;;;;;;5029827;28;20599;-74
2023/05/21 06:23:49;;;;;;;6.50;5.80;;;18.40;99.90;;;;;;5028352;28;20636;-74
2023/05/21 06:26:15;;;;;;;6.60;5.97;;;18.60;99.90;;;;;;5028813;28;21248;-74
2023/05/21 06:28:41;;;;;;;6.47;5.50;;;18.70;99.90;;;;;;5028867;28;20604;-74
2023/05/21 06:31:08;;;;;;;6.40;5.77;;;18.70;99.90;;;;;;5010975;28;20267;-74
2023/05/21 06:33:37;;;;;;;7.70;5.53;;;18.90;99.90;;;;;;5013031;28;20994;-75
2023/05/21 06:36:02;;;;;;;6.10;5.30;;;19.00;99.90;;;;;;4998034;28;20596;-74
2023/05/21 06:38:29;;;;;;;6.47;5.87;;;19.20;99.90;;;;;;5028938;28;20268;-74
2023/05/21 06:40:54;;;;;;;7.47;5.23;;;19.50;99.90;;;;;;5030228;28;20679;-74
2023/05/21 06:43:36;;;;;;;8.67;6.00;;;19.80;99.90;;;;;;5004562;28;20197;-74
2023/05/21 06:46:20;;;;;;;6.43;5.87;;;20.30;99.90;;;;;;5027235;28;20615;-75
2023/05/21 06:48:46;;;;;;;6.20;5.60;;;20.90;99.90;;;;;;5012498;28;20617;-74
2023/05/21 06:51:12;;;;;;;5.90;5.30;;;21.50;99.90;;;;;;5028713;28;20205;-75
2023/05/21 06:53:38;;;;;;;5.63;5.13;;;22.20;99.90;;;;;;5006040;28;20296;-75
2023/05/21 06:56:04;;;;;;;5.90;4.40;;;22.90;99.90;;;;;;5025170;28;21195;-75
2023/05/21 06:58:35;;;;;;;5.40;4.43;;;23.70;99.90;;;;;;5024861;28;20253;-75
2023/05/21 07:01:01;;;;;;;5.60;5.10;;;24.40;99.90;;;;;;5021464;28;20734;-76
2023/05/21 07:03:27;;;;;;;6.70;4.10;;;25.10;99.90;;;;;;5029946;28;20194;-75
2023/05/21 07:05:53;;;;;;;5.50;4.50;;;25.90;99.90;;;;;;5010085;28;20646;-75
2023/05/21 07:08:20;;;;;;;5.13;4.73;;;26.50;99.90;;;;;;5021135;28;20604;-75
2023/05/21 07:10:46;;;;;;;5.37;4.87;;;27.20;99.90;;;;;;5022987;28;20607;-75
2023/05/21 07:13:12;;;;;;;5.73;5.23;;;27.70;99.90;;;;;;5021436;28;20221;-75
2023/05/21 07:15:37;;;;;;;4.60;4.20;;;28.10;99.90;;;;;;5028325;28;20185;-75
2023/05/21 07:18:03;;;;;;;3.97;3.53;;;28.40;99.90;;;;;;5027302;28;20596;-74
2023/05/21 07:20:29;;;;;;;5.70;4.97;;;28.60;99.90;;;;;;5028097;28;20182;-75
2023/05/21 07:22:57;;;;;;;6.27;5.67;;;28.60;99.90;;;;;;5023565;28;20193;-75
2023/05/21 07:25:23;;;;;;;5.13;4.63;;;28.70;99.90;;;;;;5029815;28;20597;-75
2023/05/21 07:27:49;;;;;;;4.53;4.13;;;28.60;99.60;;;;;;5028279;28;20181;-75
2023/05/21 07:30:15;;;;;;;4.40;4.00;;;28.70;98.80;;;;;;5029100;28;20713;-75
2023/05/21 07:32:41;;;;;;;4.13;3.73;;;28.80;98.80;;;;;;5008582;28;20633;-74
2023/05/21 07:35:07;;;;;;;4.63;4.23;;;28.90;98.50;;;;;;5010578;28;20262;-74
2023/05/21 07:37:33;;;;;;;4.77;4.37;;;29.00;97.70;;;;;;5011851;28;20170;-75
2023/05/21 07:39:59;;;;;;;4.60;4.20;;;29.00;96.90;;;;;;5028729;28;20610;-74
2023/05/21 07:42:25;;;;;;;5.93;5.03;;;29.00;95.50;;;;;;5009814;28;20181;-74
2023/05/21 07:44:52;;;;;;;4.60;4.00;;;28.90;95.10;;;;;;5027722;28;20633;-74
2023/05/21 07:47:18;;;;;;;4.00;3.60;;;28.80;94.40;;;;;;5010741;28;21022;-74
2023/05/21 07:49:44;;;;;;;6.10;4.17;;;28.60;94.00;;;;;;5027997;28;20757;-74
2023/05/21 07:52:10;;;;;;;4.33;3.93;;;28.60;94.10;;;;;;5011336;28;20695;-74
2023/05/21 07:54:36;;;;;;;5.30;4.80;;;28.70;94.20;;;;;;5026627;28;20205;-74
2023/05/21 07:57:02;;;;;;;4.33;3.80;;;28.80;93.40;;;;;;5035141;28;20687;-74
2023/05/21 07:59:47;;;;;;;3.90;3.50;;;28.90;93.50;;;;;;5030219;28;20612;-74
2023/05/21 08:02:12;;;;;;;4.80;3.93;;;29.20;94.20;;;;;;5025769;28;20628;-74
2023/05/21 08:04:39;;;;;;;4.37;3.70;;;29.40;93.30;;;;;;5018563;28;20193;-74
2023/05/21 08:07:05;;;;;;;4.33;3.93;;;29.50;92.80;;;;;;5037222;28;20598;-74
2023/05/21 08:09:31;;;;;;;4.80;4.17;;;29.70;92.70;;;;;;5037103;28;20634;-74
2023/05/21 08:11:57;;;;;;;4.60;4.20;;;30.00;92.50;;;;;;5019127;28;20213;-74
2023/05/21 08:14:23;;;;;;;5.30;4.80;;;30.20;91.90;;;;;;5035996;28;20694;-74
2023/05/21 08:16:49;;;;;;;5.00;4.60;;;30.50;91.30;;;;;;5035631;28;20518;-74
2023/05/21 08:19:15;;;;;;;4.97;4.57;;;30.60;89.90;;;;;;5019461;28;20749;-73
2023/05/21 08:21:42;;;;;;;5.73;4.57;;;30.60;89.20;;;;;;5019121;28;20250;-73
2023/05/21 08:24:09;;;;;;;4.40;4.00;;;30.80;88.30;;;;;;5035915;28;20641;-75
2023/05/21 08:26:35;;;;;;;3.80;3.30;;;31.00;87.30;;;;;;5021521;28;20662;-75
2023/05/21 08:29:01;;;;;;;5.80;4.87;;;31.40;87.60;;;;;;5019638;28;21182;-75
2023/05/21 08:31:27;;;;;;;4.80;4.03;;;31.90;87.00;;;;;;5018922;28;20265;-75
2023/05/21 08:33:55;;;;;;;4.27;3.87;;;32.30;86.20;;;;;;5019487;28;20744;-74
2023/05/21 08:36:32;;;;;;;5.60;3.90;;;32.80;84.20;;;;;;5035640;28;20599;-74
2023/05/21 08:39:04;;;;;;;5.00;3.50;;;33.40;83.70;;;;;;5036176;28;20672;-74
2023/05/21 08:41:35;;;;;;;4.43;3.67;;;33.90;82.10;;;;;;5019034;28;20587;-74
2023/05/21 08:44:02;;;;;;;3.93;3.50;;;34.30;79.50;;;;;;5036003;28;20694;-74
2023/05/21 08:46:33;;;;;;;4.37;3.97;;;34.70;78.60;;;;;;5019727;28;20863;-74
2023/05/21 08:49:01;;;;;;;4.17;3.77;;;35.20;76.00;;;;;;5037022;28;20687;-74
2023/05/21 08:51:29;;;;;;;5.23;3.50;;;35.60;74.10;;;;;;5019040;28;20592;-74
2023/05/21 08:53:56;;;;;;;7.37;4.37;;;35.90;71.40;;;;;;5035244;28;20651;-74
2023/05/21 08:56:23;;;;;;;5.00;3.90;;;36.00;68.70;;;;;;5019407;28;20577;-74
2023/05/21 08:58:55;;;;;;;4.33;3.87;;;36.10;66.90;;;;;;5030242;28;20691;-74
2023/05/21 09:01:25;;;;;;;5.57;4.03;;;36.10;65.20;;;;;;5054755;28;20654;-73
2023/05/21 09:03:59;;;;;;;5.30;4.33;;;36.10;63.70;;;;;;5059376;28;20599;-74
2023/05/21 09:06:26;;;;;;;4.53;4.13;;;36.00;62.80;;;;;;5054187;28;20577;-73
2023/05/21 09:09:03;;;;;;;4.50;4.10;;;35.90;61.70;;;;;;5035385;28;21530;-73
2023/05/21 09:11:41;;;;;;;4.70;4.30;;;35.80;60.70;;;;;;5035565;28;20580;-75
2023/05/21 09:14:08;;;;;;;7.47;4.63;;;35.80;61.40;;;;;;5051887;28;20634;-75
2023/05/21 09:17:00;;;;;;;4.87;3.77;;;35.90;60.20;;;;;;5053684;28;20575;-74
2023/05/21 09:19:28;;;;;;;4.23;3.90;;;36.00;59.80;;;;;;5035484;28;20578;-74
2023/05/21 09:22:01;;;;;;;5.53;4.10;;;36.00;59.30;;;;;;5035440;28;20674;-75
2023/05/21 09:24:30;;;;;;;5.37;4.97;;;36.10;58.60;;;;;;5037146;28;20648;-75
2023/05/21 09:26:58;;;;;;;4.23;3.93;;;36.10;58.00;;;;;;5032496;28;20584;-75
2023/05/21 09:29:25;;;;;;;4.77;4.27;;;36.10;57.90;;;;;;5031975;28;20692;-75
2023/05/21 09:31:53;;;;;;;4.47;4.00;;;36.10;57.70;;;;;;5013933;28;20599;-75
2023/05/21 09:34:19;;;;;;;4.87;4.47;;;36.10;56.60;;;;;;5033261;28;20664;-75
2023/05/21 09:36:47;;;;;;;4.87;4.47;;;36.10;56.80;;;;;;5034901;28;20597;-75
2023/05/21 09:39:28;;;;;;;4.67;4.17;;;36.30;56.80;;;;;;5029854;28;20633;-74
2023/05/21 09:41:56;;;;;;;4.00;3.60;;;36.50;56.60;;;;;;5032650;28;20687;-75
2023/05/21 09:44:22;;;;;;;5.10;4.40;;;36.80;57.30;;;;;;5016751;28;20719;-75
2023/05/21 09:46:49;;;;;;;5.23;3.83;;;37.20;56.80;;;;;;5031575;28;21238;-75
2023/05/21 09:49:23;;;;;;;5.30;4.80;;;37.50;56.60;;;;;;5031867;28;20591;-75
2023/05/21 09:51:49;;;;;;;4.07;3.70;;;37.70;54.70;;;;;;5031029;28;20576;-74
2023/05/21 09:54:15;;;;;;;4.63;4.23;;;37.90;54.70;;;;;;5023220;28;20657;-75
2023/05/21 09:56:41;;;;;;;4.50;4.10;;;38.00;53.80;;;;;;5045354;28;20173;-75
2023/05/21 09:59:06;;;;;;;4.97;4.47;;;38.00;53.40;;;;;;5053032;28;20200;-75
2023/05/21 10:01:33;;;;;;;3.93;3.63;;;37.90;52.00;;;;;;5047807;23;20692;-77
2023/05/21 10:04:02;;;;;;;6.03;4.60;;;37.70;52.00;;;;;;4987555;28;20209;-76
2023/05/21 10:06:30;;;;;;;4.80;4.40;;;37.50;51.80;;;;;;4995183;28;20578;-76
2023/05/21 10:08:58;;;;;;;4.47;4.07;;;37.20;51.50;;;;;;5011853;28;20569;-76
2023/05/21 10:11:26;;;;;;;5.10;4.70;;;37.00;51.20;;;;;;4998944;28;20628;-77
2023/05/21 10:14:03;;;;;;;5.07;4.30;;;36.90;51.50;;;;;;5027871;28;20582;-76
2023/05/21 10:16:31;;;;;;;4.80;4.40;;;36.70;51.60;;;;;;4995422;28;20952;-76
2023/05/21 10:18:58;;;;;;;6.93;5.47;;;36.60;51.30;;;;;;5011310;28;20692;-76
2023/05/21 10:21:25;;;;;;;5.60;5.10;;;36.30;50.70;;;;;;5012386;28;20600;-76
2023/05/21 10:23:52;;;;;;;5.80;5.30;;;36.10;50.40;;;;;;4984292;28;21280;-77
2023/05/21 10:26:20;;;;;;;5.30;4.80;;;35.90;50.70;;;;;;4993349;28;20602;-77
2023/05/21 10:28:49;;;;;;;5.37;4.90;;;35.80;50.80;;;;;;5007803;28;20577;-76
2023/05/21 10:31:15;;;;;;;7.17;4.17;;;35.70;50.80;;;;;;4992498;28;20598;-77
2023/05/21 10:33:42;;;;;;;6.03;5.43;;;35.70;51.40;;;;;;4991567;28;20672;-77
2023/05/21 10:36:08;;;;;;;4.63;4.23;;;35.70;51.60;;;;;;4993209;28;20586;-77
2023/05/21 10:38:35;;;;;;;5.90;5.30;;;35.70;51.80;;;;;;4992655;28;20589;-78
2023/05/21 10:41:03;;;;;;;5.60;5.10;;;35.70;51.40;;;;;;4992393;28;20697;-78
2023/05/21 10:43:38;;;;;;;5.10;4.50;;;35.60;51.20;;;;;;4991178;28;20708;-78
2023/05/21 10:46:31;;;;;;;5.70;5.13;;;35.40;50.70;;;;;;4975534;28;20570;-77
2023/05/21 10:49:12;;;;;;;6.10;5.60;;;35.20;50.70;;;;;;4992416;28;20580;-77
2023/05/21 10:51:38;;;;;;;5.47;5.07;;;35.00;50.40;;;;;;4979041;28;21046;-77
2023/05/21 10:54:26;;;;;;;4.93;4.53;;;34.80;51.20;;;;;;5012127;28;20727;-76
2023/05/21 10:57:04;;;;;;;5.97;5.43;;;34.60;51.30;;;;;;5012127;28;20180;-76
2023/05/21 10:59:42;;;;;;;6.87;5.60;;;34.40;51.20;;;;;;5011977;28;20904;-77
2023/05/21 11:02:11;;;;;;;6.77;6.17;;;34.20;51.30;;;;;;5010400;28;21202;-77
2023/05/21 11:04:40;;;;;;;6.00;5.40;;;34.20;51.70;;;;;;5010489;28;20645;-77
2023/05/21 11:07:06;;;;;;;5.80;5.30;;;34.10;51.80;;;;;;5010341;28;20577;-77
2023/05/21 11:09:32;;;;;;;5.93;5.20;;;34.00;52.10;;;;;;5010651;28;20580;-78
2023/05/21 11:11:59;;;;;;;5.97;5.43;;;34.00;52.20;;;;;;5011143;28;20197;-78
2023/05/21 11:14:39;;;;;;;6.63;5.67;;;33.90;52.30;;;;;;5011730;28;20188;-77
2023/05/21 11:17:08;;;;;;;5.50;5.00;;;33.90;52.60;;;;;;5009982;28;20620;-77
2023/05/21 11:19:35;;;;;;;7.87;7.27;;;34.00;53.50;;;;;;4994206;28;20584;-78
2023/05/21 11:22:05;;;;;;;6.30;5.60;;;34.20;53.40;;;;;;5006681;28;20716;-77
2023/05/21 11:24:32;;;;;;;6.50;5.90;;;34.40;53.10;;;;;;4998604;28;21270;-77
2023/05/21 11:27:01;;;;;;;7.93;5.97;;;34.50;53.00;;;;;;4990072;28;20574;-77
2023/05/21 11:29:45;;;;;;;5.47;5.07;;;34.60;52.70;;;;;;4990217;28;20683;-77
2023/05/21 11:32:12;;;;;;;6.23;5.73;;;34.60;52.80;;;;;;4989787;28;20705;-76
2023/05/21 11:34:39;;;;;;;6.77;6.20;;;34.80;52.70;;;;;;4990562;28;20575;-77
2023/05/21 11:37:17;;;;;;;5.30;4.90;;;34.80;52.30;;;;;;4990178;28;20578;-77
2023/05/21 11:39:44;;;;;;;6.53;5.87;;;34.80;52.00;;;;;;4990364;28;20621;-77
2023/05/21 11:42:10;;;;;;;5.87;5.27;;;34.90;52.40;;;;;;4989567;28;20665;-77
2023/05/21 11:44:46;;;;;;;9.23;6.90;;;34.90;52.30;;;;;;4991377;28;21172;-77
2023/05/21 11:47:17;;;;;;;5.57;5.10;;;35.00;51.60;;;;;;4998610;28;20273;-76
2023/05/21 11:49:43;;;;;;;6.37;5.30;;;35.00;52.10;;;;;;4998313;28;20606;-76
2023/05/21 11:52:10;;;;;;;12.57;6.70;;;35.00;52.20;;;;;;4989624;28;21220;-76
2023/05/21 11:54:49;;;;;;;6.70;6.20;;;35.10;52.00;;;;;;4991024;28;20904;-76
2023/05/21 11:57:17;;;;;;;7.80;6.10;;;35.00;51.60;;;;;;4990371;28;20582;-76
2023/05/21 11:59:43;;;;;;;6.57;6.07;;;35.00;51.50;;;;;;4991107;28;20570;-75
2023/05/21 12:02:17;;;;;;;6.50;5.87;;;34.90;51.40;;;;;;4989716;28;20676;-75
2023/05/21 12:04:45;;;;;;;6.33;5.70;;;34.80;50.90;;;;;;4989951;28;20640;-75
2023/05/21 12:07:14;;;;;;;5.90;5.40;;;34.80;51.20;;;;;;4990214;28;20938;-76
2023/05/21 12:09:40;;;;;;;6.90;5.67;;;34.70;51.50;;;;;;4989575;28;20574;-76
2023/05/21 12:12:07;;;;;;;7.27;6.67;;;34.70;51.30;;;;;;4991025;28;20705;-76
2023/05/21 12:14:35;;;;;;;7.07;5.77;;;34.70;51.40;;;;;;4989896;28;20590;-76
2023/05/21 12:17:06;;;;;;;5.57;5.17;;;34.60;51.30;;;;;;4991231;28;21063;-76
2023/05/21 12:19:33;;;;;;;6.47;5.87;;;34.50;51.30;;;;;;4989807;28;20623;-75
2023/05/21 12:22:03;;;;;;;5.77;5.27;;;34.40;51.10;;;;;;4990927;28;20621;-76
2023/05/21 12:24:32;;;;;;;6.10;5.60;;;34.30;51.10;;;;;;4989906;28;20992;-76
2023/05/21 12:27:00;;;;;;;6.90;4.97;;;34.10;51.00;;;;;;4991071;28;20631;-75
2023/05/21 12:29:28;;;;;;;6.07;5.47;;;34.00;51.20;;;;;;4990112;28;20626;-75
2023/05/21 12:31:59;;;;;;;6.77;6.17;;;33.80;51.20;;;;;;4989292;28;20620;-76
2023/05/21 12:34:44;;;;;;;6.50;5.80;;;33.60;51.20;;;;;;5006755;28;20592;-75
2023/05/21 12:37:18;;;;;;;7.57;6.17;;;33.30;51.20;;;;;;4989653;28;20587;-76
2023/05/21 12:39:45;;;;;;;6.63;6.03;;;33.10;51.10;;;;;;4990278;28;20680;-76
2023/05/21 12:42:12;;;;;;;13.93;6.87;;;32.90;51.10;;;;;;4991747;28;20737;-76
2023/05/21 12:44:39;;;;;;;6.57;6.07;;;32.60;51.30;;;;;;5005032;28;20626;-75
2023/05/21 12:47:05;;;;;;;7.53;6.83;;;32.30;51.30;;;;;;5012711;28;20576;-75
2023/05/21 12:49:38;;;;;;;7.10;6.40;;;31.90;51.40;;;;;;5029659;28;20676;-75
2023/05/21 12:52:11;;;;;;;6.70;6.00;;;31.60;51.90;;;;;;5013592;28;20594;-75